Springboro, Ohio
Current Conditions -  °F | °C
As of 9:53 PM on Friday 21 Nov 2014 (Local Time) from KMGY Reporting Station
Clear Clear  
Wind Chill: 16°   Ceiling: Unl
Heat Index: 23°   Visibility: 10mi
Dew Point: 11°   Wind: 6mph
Humidity: 60%   Direction: 140°SE
Pressure: 30.4"   Gusts: NA
Location:  39.56°N, 84.23°W
Report Text: KMGY 220253Z AUTO 14005KT 10SM CLR M05/M12 A3040 RMK AO2 SLP308 T10501117 56014
Loading
Personal Weather Stations






























Interactive Weather Map New forecast layout! Learn more

10-Day Weather Forecast

Advertisements
Track Severe Weather on mobile